Time;durP1;ratioP1;P1;durP2;ratioP2;P2;SDS_P1;SDS_P2;PMS_P1;PMS_P2;Temp;Humidity;BMP_temperature;BMP_pressure;BME280_temperature;BME280_humidity;BME280_pressure;Samples;Min_cycle;Max_cycle;Signal;HPM_P1;HPM_P2
2022/11/20 00:00:33;;;;;;;;;10.00;8.25;;;;;;;;5032188;28;10671;-85
2022/11/20 00:03:01;;;;;;;;;4.50;4.50;;;;;;;;5015979;28;11413;-85
2022/11/20 00:05:29;;;;;;;;;6.75;6.75;;;;;;;;5014718;28;10749;-84
2022/11/20 00:07:56;;;;;;;;;7.50;7.50;;;;;;;;5015577;28;11154;-85
2022/11/20 00:10:24;;;;;;;;;8.25;8.25;;;;;;;;5033410;28;10659;-84
2022/11/20 00:12:52;;;;;;;;;7.50;7.00;;;;;;;;5016718;28;10687;-83
2022/11/20 00:15:21;;;;;;;;;9.25;9.25;;;;;;;;5027542;28;10771;-85
2022/11/20 00:17:48;;;;;;;;;9.00;9.00;;;;;;;;5028767;28;10599;-84
2022/11/20 00:20:16;;;;;;;;;5.00;5.00;;;;;;;;5008550;28;10666;-84
2022/11/20 00:22:44;;;;;;;;;7.00;7.00;;;;;;;;5007735;28;10591;-84
2022/11/20 00:25:11;;;;;;;;;9.00;7.75;;;;;;;;5025295;28;10577;-83
2022/11/20 00:27:39;;;;;;;;;8.00;8.00;;;;;;;;5028437;28;10557;-85
2022/11/20 00:30:08;;;;;;;;;5.75;5.25;;;;;;;;5030368;28;10598;-85
2022/11/20 00:32:38;;;;;;;;;7.00;7.00;;;;;;;;5029828;28;10647;-84
2022/11/20 00:35:06;;;;;;;;;9.25;7.25;;;;;;;;5033508;28;10735;-85
2022/11/20 00:37:33;;;;;;;;;5.50;5.50;;;;;;;;5015977;28;10687;-85
2022/11/20 00:40:01;;;;;;;;;4.25;4.25;;;;;;;;5026261;28;10612;-85
2022/11/20 00:42:28;;;;;;;;;7.00;7.00;;;;;;;;5036129;28;10824;-85
2022/11/20 00:44:56;;;;;;;;;8.50;6.00;;;;;;;;5044521;28;10774;-85
2022/11/20 00:47:23;;;;;;;;;8.75;7.50;;;;;;;;5043565;28;10952;-85
2022/11/20 00:49:53;;;;;;;;;7.00;7.00;;;;;;;;5023115;28;10932;-85
2022/11/20 00:52:20;;;;;;;;;8.00;8.00;;;;;;;;5021581;28;11759;-85
2022/11/20 00:54:48;;;;;;;;;7.50;7.50;;;;;;;;5040220;28;10953;-84
2022/11/20 00:57:16;;;;;;;;;8.00;8.00;;;;;;;;5043894;28;10910;-85
2022/11/20 00:59:43;;;;;;;;;9.00;7.25;;;;;;;;5047808;28;10918;-85
2022/11/20 01:02:11;;;;;;;;;11.75;9.00;;;;;;;;5022169;28;11035;-84
2022/11/20 01:04:39;;;;;;;;;10.00;7.75;;;;;;;;5018408;28;11146;-85
2022/11/20 01:07:08;;;;;;;;;6.00;5.00;;;;;;;;5017475;28;11077;-83
2022/11/20 01:09:35;;;;;;;;;6.25;6.25;;;;;;;;5036190;28;11009;-84
2022/11/20 01:12:03;;;;;;;;;9.00;7.00;;;;;;;;5032324;28;11068;-85
2022/11/20 01:14:30;;;;;;;;;5.50;5.50;;;;;;;;5036177;28;11083;-85
2022/11/20 01:16:58;;;;;;;;;3.75;3.75;;;;;;;;5027315;28;11100;-84
2022/11/20 01:19:26;;;;;;;;;7.00;7.00;;;;;;;;5015302;28;11168;-84
2022/11/20 01:21:55;;;;;;;;;5.00;3.75;;;;;;;;5044565;28;11157;-85
2022/11/20 01:24:24;;;;;;;;;8.75;8.75;;;;;;;;5035459;28;11024;-84
2022/11/20 01:26:53;;;;;;;;;7.00;7.00;;;;;;;;5041951;28;10982;-84
2022/11/20 01:29:22;;;;;;;;;7.00;4.25;;;;;;;;5028505;28;11219;-84
2022/11/20 01:31:50;;;;;;;;;8.25;8.25;;;;;;;;5054192;28;11232;-84
2022/11/20 01:34:19;;;;;;;;;7.00;7.00;;;;;;;;5029744;28;11087;-85
2022/11/20 01:36:47;;;;;;;;;6.25;6.25;;;;;;;;5046246;28;11238;-85
2022/11/20 01:39:17;;;;;;;;;4.00;4.00;;;;;;;;5030690;28;11244;-85
2022/11/20 01:44:59;;;;;;;;;4.00;4.00;;;;;;;;5043953;28;11103;-85
2022/11/20 01:47:32;;;;;;;;;8.00;8.00;;;;;;;;5015606;28;11205;-83
2022/11/20 01:50:05;;;;;;;;;6.50;6.50;;;;;;;;5035823;28;11160;-84
2022/11/20 01:52:36;;;;;;;;;8.25;6.50;;;;;;;;5053764;28;11199;-84
2022/11/20 01:55:06;;;;;;;;;3.25;3.25;;;;;;;;5061885;28;11187;-84
2022/11/20 01:57:45;;;;;;;;;7.00;7.00;;;;;;;;5042812;28;11223;-84
2022/11/20 02:00:29;;;;;;;;;5.25;4.50;;;;;;;;5041660;28;11522;-84
2022/11/20 02:03:00;;;;;;;;;6.00;6.00;;;;;;;;5000657;28;11226;-84
2022/11/20 02:05:32;;;;;;;;;7.25;5.50;;;;;;;;5044785;28;11454;-83
2022/11/20 02:08:01;;;;;;;;;8.00;6.75;;;;;;;;5033305;28;11885;-85
2022/11/20 02:10:29;;;;;;;;;5.25;5.25;;;;;;;;5037305;28;11450;-84
2022/11/20 02:15:44;;;;;;;;;7.25;6.00;;;;;;;;5042231;28;11411;-86
2022/11/20 02:18:14;;;;;;;;;8.00;6.50;;;;;;;;5035137;28;11564;-86
2022/11/20 02:20:42;;;;;;;;;6.50;5.50;;;;;;;;5028794;28;11454;-84
2022/11/20 02:23:13;;;;;;;;;7.75;6.00;;;;;;;;5032042;28;11560;-85
2022/11/20 02:25:43;;;;;;;;;7.00;4.00;;;;;;;;5023544;28;11440;-85
2022/11/20 02:28:12;;;;;;;;;6.00;6.00;;;;;;;;5047024;28;11459;-85
2022/11/20 02:30:39;;;;;;;;;6.50;6.50;;;;;;;;5046507;28;11527;-85
2022/11/20 02:33:07;;;;;;;;;6.50;6.50;;;;;;;;5040683;28;11424;-85
2022/11/20 02:35:52;;;;;;;;;9.00;8.50;;;;;;;;5026206;28;11440;-85
2022/11/20 02:38:20;;;;;;;;;8.00;6.00;;;;;;;;5030132;28;11434;-84
2022/11/20 02:40:49;;;;;;;;;9.00;6.25;;;;;;;;5026722;28;11405;-85
2022/11/20 02:43:17;;;;;;;;;9.00;7.00;;;;;;;;5016557;28;11545;-85
2022/11/20 02:45:45;;;;;;;;;8.00;8.00;;;;;;;;5032259;28;11484;-84
2022/11/20 02:48:13;;;;;;;;;11.25;7.25;;;;;;;;5030997;28;11468;-85
2022/11/20 02:50:42;;;;;;;;;9.00;8.25;;;;;;;;5014179;28;11419;-85
2022/11/20 02:53:10;;;;;;;;;8.00;8.00;;;;;;;;5028289;28;11552;-85
2022/11/20 02:55:38;;;;;;;;;8.00;8.00;;;;;;;;5014376;28;11477;-85
2022/11/20 02:58:07;;;;;;;;;3.50;3.50;;;;;;;;5009931;28;11459;-86
2022/11/20 03:00:35;;;;;;;;;6.50;6.50;;;;;;;;5014050;28;11508;-86
2022/11/20 03:03:03;;;;;;;;;6.75;5.75;;;;;;;;5026331;28;11448;-86
2022/11/20 03:05:31;;;;;;;;;5.50;5.50;;;;;;;;5027558;28;11436;-86
2022/11/20 03:07:59;;;;;;;;;7.00;5.00;;;;;;;;5028697;28;11410;-86
2022/11/20 03:10:26;;;;;;;;;5.50;5.50;;;;;;;;5032075;28;11631;-86
2022/11/20 03:12:55;;;;;;;;;4.50;4.50;;;;;;;;5029688;28;11455;-86
2022/11/20 03:15:25;;;;;;;;;3.50;3.50;;;;;;;;5034328;28;11419;-85
2022/11/20 03:17:55;;;;;;;;;7.25;5.75;;;;;;;;5043503;28;11430;-84
2022/11/20 03:20:23;;;;;;;;;6.00;6.00;;;;;;;;5043130;28;11464;-84
2022/11/20 03:22:51;;;;;;;;;6.00;6.00;;;;;;;;5038826;28;11592;-84
2022/11/20 03:25:18;;;;;;;;;4.50;3.75;;;;;;;;5011753;28;11500;-85
2022/11/20 03:27:46;;;;;;;;;6.50;5.50;;;;;;;;5034894;28;11452;-84
2022/11/20 03:30:14;;;;;;;;;6.00;4.00;;;;;;;;5028764;28;11415;-83
2022/11/20 03:32:43;;;;;;;;;6.00;6.00;;;;;;;;5033279;28;11525;-84
2022/11/20 03:35:11;;;;;;;;;6.00;6.00;;;;;;;;5024430;28;11551;-84
2022/11/20 03:37:40;;;;;;;;;8.00;8.00;;;;;;;;5033294;28;11465;-83
2022/11/20 03:40:09;;;;;;;;;8.25;7.50;;;;;;;;5021055;28;11538;-84
2022/11/20 03:42:46;;;;;;;;;7.50;6.00;;;;;;;;5015686;28;11501;-85
2022/11/20 03:45:14;;;;;;;;;7.00;7.00;;;;;;;;5037946;28;11464;-85
2022/11/20 03:47:43;;;;;;;;;7.75;7.50;;;;;;;;5038464;28;11441;-85
2022/11/20 03:50:13;;;;;;;;;8.00;6.00;;;;;;;;5039194;28;11524;-85
2022/11/20 03:52:40;;;;;;;;;9.00;7.00;;;;;;;;5012053;28;11458;-85
2022/11/20 03:55:09;;;;;;;;;9.75;8.50;;;;;;;;5027699;28;11396;-84
2022/11/20 03:57:36;;;;;;;;;13.75;8.75;;;;;;;;5013236;28;11422;-84
2022/11/20 04:00:05;;;;;;;;;8.25;8.25;;;;;;;;5015070;28;11466;-85
2022/11/20 04:02:34;;;;;;;;;15.75;11.50;;;;;;;;5014838;28;11425;-85
2022/11/20 04:05:03;;;;;;;;;9.00;9.00;;;;;;;;5017075;28;11454;-85
2022/11/20 04:07:31;;;;;;;;;11.50;10.25;;;;;;;;5034183;28;11483;-85
2022/11/20 04:09:58;;;;;;;;;13.25;13.25;;;;;;;;5039196;28;11537;-84
2022/11/20 04:12:26;;;;;;;;;18.75;13.50;;;;;;;;5038011;28;11487;-85
2022/11/20 04:14:54;;;;;;;;;14.25;12.25;;;;;;;;5025670;28;11520;-84
2022/11/20 04:17:21;;;;;;;;;12.00;12.00;;;;;;;;5026176;28;11465;-84
2022/11/20 04:19:49;;;;;;;;;16.25;13.00;;;;;;;;5040813;28;11638;-84
2022/11/20 04:22:18;;;;;;;;;15.25;12.75;;;;;;;;5039531;28;11456;-84
2022/11/20 04:24:46;;;;;;;;;12.50;11.50;;;;;;;;5040325;28;11530;-85
2022/11/20 04:27:13;;;;;;;;;18.25;13.75;;;;;;;;5049989;28;11592;-84
2022/11/20 04:29:41;;;;;;;;;11.75;11.00;;;;;;;;5024935;28;11600;-84
2022/11/20 04:32:09;;;;;;;;;8.25;8.25;;;;;;;;5045470;28;11408;-85
2022/11/20 04:34:37;;;;;;;;;6.75;6.75;;;;;;;;5026628;28;11524;-84
2022/11/20 04:37:05;;;;;;;;;6.25;4.00;;;;;;;;5036917;28;11527;-84
2022/11/20 04:39:35;;;;;;;;;8.00;4.00;;;;;;;;5040491;28;11575;-84
2022/11/20 04:44:47;;;;;;;;;6.00;4.00;;;;;;;;5042068;28;11426;-84
2022/11/20 04:47:15;;;;;;;;;1.75;1.75;;;;;;;;5032513;28;11523;-83
2022/11/20 04:49:42;;;;;;;;;5.00;5.00;;;;;;;;5014280;28;11495;-84
2022/11/20 04:52:10;;;;;;;;;3.00;3.00;;;;;;;;5035598;28;11444;-84
2022/11/20 04:54:39;;;;;;;;;2.50;2.00;;;;;;;;5031393;28;11468;-85
2022/11/20 04:57:06;;;;;;;;;4.00;2.50;;;;;;;;5029946;28;11463;-84
2022/11/20 04:59:35;;;;;;;;;2.00;2.00;;;;;;;;5025835;28;11492;-84
2022/11/20 05:02:03;;;;;;;;;3.25;3.25;;;;;;;;5025033;28;11451;-83
2022/11/20 05:04:30;;;;;;;;;3.00;3.00;;;;;;;;5023868;28;11467;-84
2022/11/20 05:06:58;;;;;;;;;2.00;2.00;;;;;;;;5024527;28;11432;-84
2022/11/20 05:09:26;;;;;;;;;3.00;3.00;;;;;;;;5013600;28;11448;-83
2022/11/20 05:11:55;;;;;;;;;3.00;2.00;;;;;;;;5020555;28;11392;-84
2022/11/20 05:14:22;;;;;;;;;3.00;3.00;;;;;;;;5020216;28;11448;-84
2022/11/20 05:16:50;;;;;;;;;2.00;2.00;;;;;;;;5031331;28;11465;-83
2022/11/20 05:19:17;;;;;;;;;1.25;1.25;;;;;;;;5030349;28;11403;-84
2022/11/20 05:21:45;;;;;;;;;4.00;3.00;;;;;;;;5014265;28;11422;-84
2022/11/20 05:24:12;;;;;;;;;2.00;2.00;;;;;;;;5030063;28;11434;-84
2022/11/20 05:26:40;;;;;;;;;5.50;3.00;;;;;;;;5012973;28;11440;-84
2022/11/20 05:29:11;;;;;;;;;4.00;4.00;;;;;;;;5024298;28;11555;-84
2022/11/20 05:31:41;;;;;;;;;3.00;3.00;;;;;;;;5011929;28;11461;-84
2022/11/20 05:34:09;;;;;;;;;3.75;3.75;;;;;;;;5036785;28;11402;-85
2022/11/20 05:36:37;;;;;;;;;6.00;2.00;;;;;;;;5013601;28;11440;-84
2022/11/20 05:39:04;;;;;;;;;3.25;3.00;;;;;;;;5026261;28;11449;-84
2022/11/20 05:41:34;;;;;;;;;2.00;2.00;;;;;;;;5028168;28;11443;-84
2022/11/20 05:44:02;;;;;;;;;3.00;3.00;;;;;;;;5031956;28;11520;-84
2022/11/20 05:46:31;;;;;;;;;3.00;3.00;;;;;;;;5028832;28;11528;-84
2022/11/20 05:48:59;;;;;;;;;3.75;3.50;;;;;;;;5028743;28;11447;-84
2022/11/20 05:51:27;;;;;;;;;2.25;2.00;;;;;;;;5028466;28;11454;-84
2022/11/20 05:53:57;;;;;;;;;3.50;3.50;;;;;;;;5025579;28;11491;-85
2022/11/20 05:56:24;;;;;;;;;4.00;4.00;;;;;;;;5010426;28;11437;-84
2022/11/20 05:58:52;;;;;;;;;3.75;3.75;;;;;;;;5026113;28;11432;-84
2022/11/20 06:01:21;;;;;;;;;3.00;3.00;;;;;;;;5013550;28;11482;-84
2022/11/20 06:03:50;;;;;;;;;3.00;3.00;;;;;;;;5008556;28;11478;-85
2022/11/20 06:06:18;;;;;;;;;4.50;4.00;;;;;;;;5035071;28;11460;-84
2022/11/20 06:08:46;;;;;;;;;9.00;6.00;;;;;;;;5033981;28;11414;-85
2022/11/20 06:11:15;;;;;;;;;3.75;3.25;;;;;;;;5020766;28;11450;-85
2022/11/20 06:13:43;;;;;;;;;3.75;3.75;;;;;;;;5011499;28;11239;-85
2022/11/20 06:16:11;;;;;;;;;4.00;2.75;;;;;;;;5032704;28;11464;-85
2022/11/20 06:18:38;;;;;;;;;3.00;3.00;;;;;;;;4995618;28;11940;-85
2022/11/20 06:21:10;;;;;;;;;1.75;1.75;;;;;;;;5031026;28;11339;-85
2022/11/20 06:23:38;;;;;;;;;3.25;3.25;;;;;;;;5034125;28;11215;-84
2022/11/20 06:26:07;;;;;;;;;3.00;3.00;;;;;;;;5030440;28;11554;-84
2022/11/20 06:28:35;;;;;;;;;6.00;2.00;;;;;;;;5030657;28;11144;-84
2022/11/20 06:31:03;;;;;;;;;3.50;3.00;;;;;;;;5016011;28;11147;-84
2022/11/20 06:33:31;;;;;;;;;7.50;6.00;;;;;;;;5035745;28;11032;-85
2022/11/20 06:35:59;;;;;;;;;2.25;2.25;;;;;;;;5031142;28;11530;-85
2022/11/20 06:38:29;;;;;;;;;6.00;3.25;;;;;;;;5035133;28;11089;-85
2022/11/20 06:40:57;;;;;;;;;3.00;3.00;;;;;;;;5039210;28;11230;-85
2022/11/20 06:43:25;;;;;;;;;6.00;3.00;;;;;;;;5037495;28;11018;-84
2022/11/20 06:45:54;;;;;;;;;2.00;2.00;;;;;;;;5044357;28;11155;-84
2022/11/20 06:48:21;;;;;;;;;5.50;5.50;;;;;;;;5011568;28;11068;-83
2022/11/20 06:50:49;;;;;;;;;3.25;3.25;;;;;;;;5015876;28;11429;-85
2022/11/20 06:53:16;;;;;;;;;2.75;2.50;;;;;;;;5029433;28;11186;-84
2022/11/20 06:55:46;;;;;;;;;7.50;4.00;;;;;;;;5035994;28;11117;-84
2022/11/20 06:58:14;;;;;;;;;3.00;3.00;;;;;;;;5018835;28;11139;-85
2022/11/20 07:00:42;;;;;;;;;2.75;2.00;;;;;;;;5035119;28;11244;-85
2022/11/20 07:03:10;;;;;;;;;2.00;2.00;;;;;;;;5019253;28;11443;-85
2022/11/20 07:05:39;;;;;;;;;5.50;3.00;;;;;;;;5028816;28;11452;-85
2022/11/20 07:08:07;;;;;;;;;7.25;4.25;;;;;;;;5030519;28;11575;-85
2022/11/20 07:10:36;;;;;;;;;2.50;2.50;;;;;;;;5035341;28;11604;-84
2022/11/20 07:13:06;;;;;;;;;3.00;3.00;;;;;;;;5000011;28;11444;-84
2022/11/20 07:15:36;;;;;;;;;6.75;3.75;;;;;;;;5034071;28;11447;-85
2022/11/20 07:18:04;;;;;;;;;3.50;3.50;;;;;;;;5032354;28;11464;-85
2022/11/20 07:20:31;;;;;;;;;4.00;4.00;;;;;;;;5012312;28;11421;-86
2022/11/20 07:22:59;;;;;;;;;3.00;2.75;;;;;;;;5015219;28;11403;-86
2022/11/20 07:25:28;;;;;;;;;3.00;1.00;;;;;;;;5033422;28;11453;-84
2022/11/20 07:27:59;;;;;;;;;2.00;2.00;;;;;;;;5032528;28;11507;-84
2022/11/20 07:30:28;;;;;;;;;2.25;2.25;;;;;;;;5018792;28;11464;-84
2022/11/20 07:32:57;;;;;;;;;2.00;2.00;;;;;;;;5034564;28;11543;-83
2022/11/20 07:35:25;;;;;;;;;3.00;3.00;;;;;;;;5013079;28;11538;-84
2022/11/20 07:37:53;;;;;;;;;3.00;3.00;;;;;;;;5020304;28;11439;-84
2022/11/20 07:40:21;;;;;;;;;6.00;3.00;;;;;;;;5037807;28;11557;-84
2022/11/20 07:42:52;;;;;;;;;6.25;3.75;;;;;;;;5038837;28;11505;-84
2022/11/20 07:45:21;;;;;;;;;3.75;2.75;;;;;;;;5034102;28;11473;-85
2022/11/20 07:47:50;;;;;;;;;4.00;2.50;;;;;;;;5028995;28;11533;-85
2022/11/20 07:50:17;;;;;;;;;3.25;3.25;;;;;;;;5036205;28;11463;-84
2022/11/20 07:52:45;;;;;;;;;7.00;5.50;;;;;;;;5031823;28;11459;-77
2022/11/20 07:55:13;;;;;;;;;4.50;4.50;;;;;;;;5013319;28;11432;-75
2022/11/20 07:57:41;;;;;;;;;4.00;4.00;;;;;;;;5005014;28;11445;-79
2022/11/20 08:00:11;;;;;;;;;6.00;6.00;;;;;;;;5025715;28;11430;-78
2022/11/20 08:02:40;;;;;;;;;6.00;6.00;;;;;;;;5018623;28;11555;-77
2022/11/20 08:05:11;;;;;;;;;10.00;10.00;;;;;;;;5019723;28;11441;-76
2022/11/20 08:07:39;;;;;;;;;7.00;7.00;;;;;;;;5014885;28;12360;-78
2022/11/20 08:10:11;;;;;;;;;9.50;6.00;;;;;;;;5021231;28;11533;-79
2022/11/20 08:15:32;;;;;;;;;8.25;8.00;;;;;;;;5019175;28;11346;-77
2022/11/20 08:18:03;;;;;;;;;7.00;7.00;;;;;;;;5020064;28;11474;-76
2022/11/20 08:20:37;;;;;;;;;6.25;6.25;;;;;;;;5008618;28;11464;-78
2022/11/20 08:23:06;;;;;;;;;6.00;6.00;;;;;;;;5008290;28;11494;-82
2022/11/20 08:25:48;;;;;;;;;7.00;7.00;;;;;;;;4998930;28;11563;-79
2022/11/20 08:28:15;;;;;;;;;8.00;8.00;;;;;;;;5008617;28;11473;-82
2022/11/20 08:30:48;;;;;;;;;9.75;9.75;;;;;;;;5008195;28;11426;-76
2022/11/20 08:33:23;;;;;;;;;7.75;7.75;;;;;;;;5001528;28;11503;-76
2022/11/20 08:35:59;;;;;;;;;6.00;6.00;;;;;;;;5005568;28;11528;-78
2022/11/20 08:38:26;;;;;;;;;4.00;4.00;;;;;;;;5004485;28;12321;-78
2022/11/20 08:43:40;;;;;;;;;8.75;7.00;;;;;;;;5011754;28;11977;-82
2022/11/20 08:46:08;;;;;;;;;7.75;7.75;;;;;;;;5012393;28;11560;-78
2022/11/20 08:48:38;;;;;;;;;7.50;7.50;;;;;;;;4993327;28;11464;-79
2022/11/20 08:51:10;;;;;;;;;8.00;6.00;;;;;;;;4996271;28;11263;-80
2022/11/20 08:53:38;;;;;;;;;7.00;7.00;;;;;;;;4991434;28;11160;-81
2022/11/20 08:56:09;;;;;;;;;7.75;7.75;;;;;;;;5023275;28;11341;-81
2022/11/20 08:58:37;;;;;;;;;7.00;7.00;;;;;;;;5034551;28;11444;-79
2022/11/20 09:01:05;;;;;;;;;7.75;7.75;;;;;;;;5021430;28;11408;-77
2022/11/20 09:03:45;;;;;;;;;7.25;7.25;;;;;;;;5041191;28;11083;-80
2022/11/20 09:06:14;;;;;;;;;8.00;7.00;;;;;;;;5014347;28;11427;-76
2022/11/20 09:08:42;;;;;;;;;7.00;7.00;;;;;;;;5021669;28;11104;-79
2022/11/20 09:11:10;;;;;;;;;12.00;8.00;;;;;;;;5022334;28;11532;-77
2022/11/20 09:13:37;;;;;;;;;9.00;9.00;;;;;;;;5021328;28;11592;-71
2022/11/20 09:16:07;;;;;;;;;7.75;6.75;;;;;;;;5021911;28;11428;-76
2022/11/20 09:18:37;;;;;;;;;11.25;8.50;;;;;;;;5019566;28;11206;-72
2022/11/20 09:21:06;;;;;;;;;7.75;7.75;;;;;;;;5016306;28;11413;-73
2022/11/20 09:23:36;;;;;;;;;9.75;7.75;;;;;;;;5021467;28;11371;-73
2022/11/20 09:26:05;;;;;;;;;8.50;7.00;;;;;;;;5023244;28;11305;-73
2022/11/20 09:28:33;;;;;;;;;9.00;7.25;;;;;;;;5022746;28;11809;-74
2022/11/20 09:31:01;;;;;;;;;4.00;4.00;;;;;;;;5023446;28;11049;-75
2022/11/20 09:33:28;;;;;;;;;7.00;7.00;;;;;;;;5019597;28;11271;-73
2022/11/20 09:35:56;;;;;;;;;6.50;6.50;;;;;;;;5019853;28;11050;-74
2022/11/20 09:38:24;;;;;;;;;5.25;5.25;;;;;;;;5001583;28;10919;-74
2022/11/20 09:40:58;;;;;;;;;6.75;6.75;;;;;;;;5020754;28;10859;-74
2022/11/20 09:43:36;;;;;;;;;4.00;4.00;;;;;;;;5027462;28;10970;-74
2022/11/20 09:46:11;;;;;;;;;5.75;5.75;;;;;;;;5018693;28;11839;-74
2022/11/20 09:49:02;;;;;;;;;9.00;5.25;;;;;;;;5025713;28;11013;-74
2022/11/20 09:51:38;;;;;;;;;5.25;5.25;;;;;;;;5023989;28;10966;-74
2022/11/20 09:54:16;;;;;;;;;8.75;6.75;;;;;;;;5006041;28;10748;-74
2022/11/20 09:56:50;;;;;;;;;8.50;5.00;;;;;;;;5022537;28;10997;-74
2022/11/20 09:59:36;;;;;;;;;4.00;4.00;;;;;;;;5021464;28;10763;-73
2022/11/20 10:02:09;;;;;;;;;7.00;7.00;;;;;;;;5026573;28;10716;-74
2022/11/20 10:04:41;;;;;;;;;4.00;4.00;;;;;;;;5025123;28;10678;-75
2022/11/20 10:07:14;;;;;;;;;9.00;7.50;;;;;;;;5024114;28;10607;-76
2022/11/20 10:09:48;;;;;;;;;9.00;6.50;;;;;;;;5022164;28;10711;-75
2022/11/20 10:12:24;;;;;;;;;4.00;4.00;;;;;;;;5021543;28;10646;-75
2022/11/20 10:15:04;;;;;;;;;4.50;4.50;;;;;;;;5024188;28;10642;-76
2022/11/20 10:18:00;;;;;;;;;5.25;3.50;;;;;;;;5024240;28;11465;-76
2022/11/20 10:20:33;;;;;;;;;5.50;3.75;;;;;;;;5002068;28;11375;-76
2022/11/20 10:23:27;;;;;;;;;5.50;3.50;;;;;;;;5025541;28;10606;-76
2022/11/20 10:26:02;;;;;;;;;5.75;5.75;;;;;;;;5025070;28;10666;-76
2022/11/20 10:28:50;;;;;;;;;4.00;4.00;;;;;;;;5004091;28;10860;-78
2022/11/20 10:31:28;;;;;;;;;7.75;7.00;;;;;;;;5022512;28;10872;-76
2022/11/20 10:33:59;;;;;;;;;8.00;6.50;;;;;;;;5005026;28;10859;-76
2022/11/20 10:36:28;;;;;;;;;8.00;8.00;;;;;;;;5006298;28;10813;-77
2022/11/20 10:39:01;;;;;;;;;7.25;7.25;;;;;;;;4992096;28;10904;-76
2022/11/20 10:41:33;;;;;;;;;6.00;6.00;;;;;;;;5027972;28;10840;-77
2022/11/20 10:44:06;;;;;;;;;15.00;15.00;;;;;;;;4991601;28;10963;-77
2022/11/20 10:46:40;;;;;;;;;10.00;10.00;;;;;;;;5023537;28;11081;-78
2022/11/20 10:49:14;;;;;;;;;9.00;8.00;;;;;;;;5024432;28;11027;-76
2022/11/20 10:51:51;;;;;;;;;10.75;10.00;;;;;;;;5022824;28;10913;-77
2022/11/20 10:54:23;;;;;;;;;8.50;7.00;;;;;;;;5004585;28;11171;-75
2022/11/20 10:56:53;;;;;;;;;6.75;6.75;;;;;;;;5021530;28;11807;-76
2022/11/20 10:59:43;;;;;;;;;9.25;9.25;;;;;;;;5023346;28;11034;-76
2022/11/20 11:02:19;;;;;;;;;13.75;9.25;;;;;;;;5018745;28;10955;-76
2022/11/20 11:04:48;;;;;;;;;13.75;9.50;;;;;;;;5024440;28;11274;-76
2022/11/20 11:07:20;;;;;;;;;9.00;9.00;;;;;;;;5029853;28;11117;-76
2022/11/20 11:09:50;;;;;;;;;14.25;10.00;;;;;;;;5023991;28;11151;-77
2022/11/20 11:12:18;;;;;;;;;9.25;9.25;;;;;;;;5027363;28;11287;-74
2022/11/20 11:14:59;;;;;;;;;10.00;10.00;;;;;;;;5022574;28;11815;-77
2022/11/20 11:17:30;;;;;;;;;11.50;11.50;;;;;;;;5004757;28;11033;-79
2022/11/20 11:20:15;;;;;;;;;9.50;9.50;;;;;;;;5020841;28;11082;-80
2022/11/20 11:22:46;;;;;;;;;10.00;10.00;;;;;;;;5024466;28;11171;-81
2022/11/20 11:25:29;;;;;;;;;13.25;12.75;;;;;;;;5020979;28;11094;-76
2022/11/20 11:27:59;;;;;;;;;15.00;13.00;;;;;;;;5021602;28;11427;-77
2022/11/20 11:30:31;;;;;;;;;9.50;9.50;;;;;;;;5024924;28;11517;-78
2022/11/20 11:33:10;;;;;;;;;13.00;13.00;;;;;;;;5018006;28;11145;-79
2022/11/20 11:35:47;;;;;;;;;10.75;10.00;;;;;;;;5017805;28;11219;-78
2022/11/20 11:38:17;;;;;;;;;12.00;12.00;;;;;;;;5023150;28;11239;-74
2022/11/20 11:40:47;;;;;;;;;15.50;12.50;;;;;;;;5023877;28;11129;-78
2022/11/20 11:46:30;;;;;;;;;13.50;13.00;;;;;;;;5026527;28;11175;-79
2022/11/20 11:49:01;;;;;;;;;13.50;12.75;;;;;;;;5021651;28;11203;-79
2022/11/20 11:51:34;;;;;;;;;13.00;10.50;;;;;;;;5024466;28;11711;-78
2022/11/20 11:54:02;;;;;;;;;13.75;13.75;;;;;;;;5025454;28;11268;-78
2022/11/20 11:56:31;;;;;;;;;14.25;14.25;;;;;;;;5021410;28;11159;-81
2022/11/20 11:59:02;;;;;;;;;10.50;9.50;;;;;;;;5007493;28;11216;-76
2022/11/20 12:01:36;;;;;;;;;12.00;12.00;;;;;;;;5019699;28;11141;-77
2022/11/20 12:04:07;;;;;;;;;14.00;12.75;;;;;;;;5003080;28;11346;-79
2022/11/20 12:06:36;;;;;;;;;10.75;9.00;;;;;;;;5019765;28;11064;-79
2022/11/20 12:09:06;;;;;;;;;10.00;10.00;;;;;;;;5003708;28;10996;-81
2022/11/20 12:11:38;;;;;;;;;10.00;9.25;;;;;;;;5022907;28;11132;-80
2022/11/20 12:14:13;;;;;;;;;1.75;1.00;;;;;;;;5003441;28;10946;-79
2022/11/20 12:16:42;;;;;;;;;10.00;10.00;;;;;;;;5026694;28;11016;-79
2022/11/20 12:19:13;;;;;;;;;10.00;8.50;;;;;;;;5019713;28;11012;-79
2022/11/20 12:21:53;;;;;;;;;13.00;9.75;;;;;;;;5002911;28;11114;-80
2022/11/20 12:24:36;;;;;;;;;8.25;8.00;;;;;;;;5021690;28;11202;-79
2022/11/20 12:27:21;;;;;;;;;10.75;8.75;;;;;;;;5023643;28;10971;-81
2022/11/20 12:29:55;;;;;;;;;10.00;10.00;;;;;;;;5023713;28;11543;-81
2022/11/20 12:32:58;;;;;;;;;7.75;7.75;;;;;;;;5022001;28;10968;-81
2022/11/20 12:35:39;;;;;;;;;9.00;7.00;;;;;;;;5019573;28;10820;-81
2022/11/20 12:38:25;;;;;;;;;7.25;7.25;;;;;;;;5026956;28;10649;-81
2022/11/20 12:40:59;;;;;;;;;6.00;6.00;;;;;;;;5004381;28;10825;-82
2022/11/20 12:46:26;;;;;;;;;5.00;5.00;;;;;;;;5003108;28;10834;-75
2022/11/20 12:49:22;;;;;;;;;8.00;8.00;;;;;;;;5004913;28;10823;-77
2022/11/20 12:52:14;;;;;;;;;2.25;2.25;;;;;;;;5016958;28;10830;-76
2022/11/20 12:55:05;;;;;;;;;8.75;8.75;;;;;;;;5019779;28;10867;-73
2022/11/20 12:57:37;;;;;;;;;8.75;8.50;;;;;;;;5019040;28;10928;-74
2022/11/20 13:00:13;;;;;;;;;7.00;7.00;;;;;;;;5024745;28;10818;-73
2022/11/20 13:03:00;;;;;;;;;4.00;4.00;;;;;;;;5019485;28;10618;-74
2022/11/20 13:05:36;;;;;;;;;7.25;7.25;;;;;;;;5018958;28;10761;-76
2022/11/20 13:08:06;;;;;;;;;5.50;5.50;;;;;;;;5005523;28;10778;-77
2022/11/20 13:10:40;;;;;;;;;5.50;4.00;;;;;;;;5020760;28;10609;-79
2022/11/20 13:13:18;;;;;;;;;6.00;6.00;;;;;;;;5022046;28;10475;-75
2022/11/20 13:15:53;;;;;;;;;6.50;4.00;;;;;;;;4999547;28;10664;-77
2022/11/20 13:18:21;;;;;;;;;3.00;3.00;;;;;;;;5023134;28;10581;-77
2022/11/20 13:20:50;;;;;;;;;4.75;4.75;;;;;;;;5018272;28;10590;-78
2022/11/20 13:23:27;;;;;;;;;6.50;6.50;;;;;;;;5022381;28;11389;-75
2022/11/20 13:26:16;;;;;;;;;4.75;4.75;;;;;;;;5018171;28;10380;-77
2022/11/20 13:28:44;;;;;;;;;7.50;5.00;;;;;;;;5020668;28;10300;-80
2022/11/20 13:31:29;;;;;;;;;5.50;5.50;;;;;;;;5016850;28;10418;-77
2022/11/20 13:33:57;;;;;;;;;5.00;5.00;;;;;;;;5016498;28;10430;-78
2022/11/20 13:36:28;;;;;;;;;7.00;6.25;;;;;;;;5001131;28;10200;-76
2022/11/20 13:39:08;;;;;;;;;5.00;5.00;;;;;;;;5021237;28;10177;-79
2022/11/20 13:41:40;;;;;;;;;5.00;5.00;;;;;;;;5014994;28;10300;-79
2022/11/20 13:44:14;;;;;;;;;3.50;3.50;;;;;;;;5020356;28;10952;-81
2022/11/20 13:46:44;;;;;;;;;6.50;6.50;;;;;;;;5022505;28;11082;-77
2022/11/20 13:49:19;;;;;;;;;8.00;8.00;;;;;;;;5000478;28;10134;-79
2022/11/20 13:52:08;;;;;;;;;7.00;5.00;;;;;;;;5022291;28;10139;-83
2022/11/20 13:54:58;;;;;;;;;10.25;7.50;;;;;;;;5004523;28;10212;-83
2022/11/20 13:57:54;;;;;;;;;8.00;8.00;;;;;;;;5021530;28;10362;-78
2022/11/20 14:00:24;;;;;;;;;7.00;7.00;;;;;;;;5016456;28;10332;-76
2022/11/20 14:03:02;;;;;;;;;7.25;7.25;;;;;;;;5018198;28;10409;-81
2022/11/20 14:05:35;;;;;;;;;6.50;6.50;;;;;;;;5017554;28;10174;-76
2022/11/20 14:08:21;;;;;;;;;4.25;4.25;;;;;;;;5015945;28;10203;-75
2022/11/20 14:10:49;;;;;;;;;6.00;4.00;;;;;;;;5019175;28;10063;-75
2022/11/20 14:13:20;;;;;;;;;5.75;4.25;;;;;;;;5018522;28;10085;-77
2022/11/20 14:15:50;;;;;;;;;6.00;6.00;;;;;;;;5014977;28;9930;-79
2022/11/20 14:18:31;;;;;;;;;5.00;5.00;;;;;;;;4999148;28;9993;-77
2022/11/20 14:21:03;;;;;;;;;4.00;4.00;;;;;;;;5019621;28;9786;-77
2022/11/20 14:23:32;;;;;;;;;5.00;5.00;;;;;;;;5019898;28;9864;-77
2022/11/20 14:26:01;;;;;;;;;5.25;5.25;;;;;;;;5021827;28;10083;-76
2022/11/20 14:28:30;;;;;;;;;6.25;5.75;;;;;;;;5016266;28;9856;-77
2022/11/20 14:30:59;;;;;;;;;4.00;4.00;;;;;;;;5019524;28;9923;-78
2022/11/20 14:33:27;;;;;;;;;4.75;4.75;;;;;;;;5017635;28;9789;-77
2022/11/20 14:35:56;;;;;;;;;5.75;4.00;;;;;;;;5025251;28;9784;-76
2022/11/20 14:38:26;;;;;;;;;7.00;4.00;;;;;;;;5016716;28;9704;-77
2022/11/20 14:40:55;;;;;;;;;3.50;3.50;;;;;;;;5019768;28;9538;-77
2022/11/20 14:43:25;;;;;;;;;3.75;3.75;;;;;;;;5026930;28;9799;-76
2022/11/20 14:46:00;;;;;;;;;4.75;3.25;;;;;;;;5023420;28;9469;-76
2022/11/20 14:48:32;;;;;;;;;4.50;4.50;;;;;;;;5013489;28;9494;-78
2022/11/20 14:50:59;;;;;;;;;6.25;6.00;;;;;;;;5021025;28;9743;-77
2022/11/20 14:53:27;;;;;;;;;4.75;4.00;;;;;;;;5005365;28;9788;-77
2022/11/20 14:56:02;;;;;;;;;9.50;6.00;;;;;;;;5022342;28;9850;-76
2022/11/20 14:58:33;;;;;;;;;3.75;3.75;;;;;;;;5007737;28;9912;-78
2022/11/20 15:01:02;;;;;;;;;5.25;5.25;;;;;;;;5022238;28;10034;-77
2022/11/20 15:03:34;;;;;;;;;4.00;4.00;;;;;;;;5020541;28;9949;-77
2022/11/20 15:06:01;;;;;;;;;4.50;4.25;;;;;;;;5024797;28;9792;-77
2022/11/20 15:08:29;;;;;;;;;5.00;5.00;;;;;;;;5027446;28;9857;-77
2022/11/20 15:10:59;;;;;;;;;5.25;5.25;;;;;;;;5026833;28;9788;-76
2022/11/20 15:13:30;;;;;;;;;4.25;4.25;;;;;;;;5014261;28;10070;-76
2022/11/20 15:15:59;;;;;;;;;6.00;6.00;;;;;;;;5024632;28;10111;-77
2022/11/20 15:18:29;;;;;;;;;7.25;5.25;;;;;;;;5022775;28;10034;-77
2022/11/20 15:20:58;;;;;;;;;3.25;3.25;;;;;;;;5028512;28;9945;-76
2022/11/20 15:23:26;;;;;;;;;5.50;4.50;;;;;;;;5023049;28;9894;-77